createdAt,value
2019-02-21T00:00:58.570Z,101223.78
2019-02-21T00:03:26.755Z,101230.36
2019-02-21T00:05:54.908Z,101221.17
2019-02-21T00:08:23.170Z,101228.68
2019-02-21T00:10:51.436Z,101223.84
2019-02-21T00:13:19.697Z,101230.41
2019-02-21T00:15:47.952Z,101235.31
2019-02-21T00:18:16.237Z,101230.84
2019-02-21T00:20:44.501Z,101229.09
2019-02-21T00:23:12.776Z,101237.48
2019-02-21T00:25:40.917Z,101249.42
2019-02-21T00:28:09.355Z,101244.11
2019-02-21T00:30:37.624Z,101245.94
2019-02-21T00:33:05.780Z,101097.17
2019-02-21T00:35:34.288Z,101237.47
2019-02-21T00:38:02.448Z,101244.13
2019-02-21T00:40:30.662Z,101227.79
2019-02-21T00:42:58.835Z,101234.42
2019-02-21T00:45:27.045Z,101233.96
2019-02-21T00:47:55.204Z,101236.22
2019-02-21T00:50:23.522Z,101234.46
2019-02-21T00:52:51.888Z,101235.31
2019-02-21T00:55:20.145Z,101239.28
2019-02-21T00:57:48.380Z,101237.52
2019-02-21T01:00:16.629Z,101235.31
2019-02-21T01:02:44.952Z,101233.55
2019-02-21T01:05:13.126Z,101233.97
2019-02-21T01:07:41.266Z,101229.15
2019-02-21T01:10:09.592Z,101231.81
2019-02-21T01:12:37.838Z,101230.92
2019-02-21T01:15:07.069Z,101233.13
2019-02-21T01:17:35.452Z,101233.09
2019-02-21T01:20:03.897Z,101231.78
2019-02-21T01:22:32.112Z,101231.78
2019-02-21T01:25:00.403Z,101228.23
2019-02-21T01:27:28.574Z,101228.68
2019-02-21T01:29:56.728Z,101236.20
2019-02-21T01:32:24.942Z,101234.45
2019-02-21T01:34:53.109Z,101232.63
2019-02-21T01:37:21.295Z,101233.55
2019-02-21T01:39:49.464Z,101233.96
2019-02-21T01:42:17.639Z,101230.91
2019-02-21T01:44:45.787Z,101233.11
2019-02-21T01:47:13.989Z,101233.05
2019-02-21T01:49:42.208Z,101227.81
2019-02-21T01:52:10.443Z,101226.05
2019-02-21T01:54:38.672Z,101232.23
2019-02-21T01:57:06.828Z,101229.55
2019-02-21T01:59:35.121Z,101225.14
2019-02-21T02:02:03.302Z,101231.79
2019-02-21T02:04:31.546Z,101229.59
2019-02-21T02:06:59.898Z,101227.82
2019-02-21T02:09:28.414Z,101230.47
2019-02-21T02:11:56.664Z,101229.14
2019-02-21T02:14:24.892Z,101226.92
2019-02-21T02:16:53.178Z,101226.47
2019-02-21T02:19:21.528Z,101225.56
2019-02-21T02:21:49.879Z,101226.51
2019-02-21T02:24:18.206Z,101226.09
2019-02-21T02:26:46.437Z,101226.53
2019-02-21T02:29:14.772Z,101234.91
2019-02-21T02:31:42.922Z,101234.91
2019-02-21T02:34:11.307Z,101238.47
2019-02-21T02:36:39.565Z,101236.69
2019-02-21T02:39:08.459Z,101235.33
2019-02-21T02:41:36.762Z,101239.30
2019-02-21T02:44:05.012Z,101237.02
2019-02-21T02:46:33.300Z,101246.28
2019-02-21T02:49:01.509Z,101247.62
2019-02-21T02:51:29.651Z,101246.27
2019-02-21T02:53:57.818Z,101248.89
2019-02-21T02:56:26.102Z,101253.72
2019-02-21T02:58:54.477Z,101252.84
2019-02-21T03:01:34.323Z,101258.20
2019-02-21T03:03:52.637Z,101263.42
2019-02-21T03:06:20.862Z,101271.84
2019-02-21T03:08:49.307Z,101270.99
2019-02-21T03:11:17.570Z,101269.69
2019-02-21T03:13:45.870Z,101274.58
2019-02-21T03:16:14.028Z,101270.59
2019-02-21T03:18:42.232Z,101270.17
2019-02-21T03:21:10.368Z,101275.11
2019-02-21T03:23:38.998Z,101273.30
2019-02-21T03:26:07.191Z,101268.41
2019-02-21T03:28:35.540Z,101266.70
2019-02-21T03:31:03.711Z,101267.59
2019-02-21T03:33:32.036Z,101262.72
2019-02-21T03:36:00.253Z,101268.52
2019-02-21T03:38:28.479Z,101267.64
2019-02-21T03:40:56.670Z,101266.77
2019-02-21T03:43:24.833Z,101260.55
2019-02-21T03:45:52.997Z,101260.58
2019-02-21T03:48:21.130Z,101258.80
2019-02-21T03:50:49.327Z,101264.13
2019-02-21T03:53:17.553Z,101264.56
2019-02-21T03:55:45.702Z,101263.67
2019-02-21T03:58:13.905Z,101257.92
2019-02-21T04:00:42.158Z,101259.25
2019-02-21T04:03:10.467Z,101260.57
2019-02-21T04:05:38.710Z,101254.80
2019-02-21T04:08:06.976Z,101255.27
2019-02-21T04:10:35.271Z,101248.17
2019-02-21T04:13:03.488Z,101252.59
2019-02-21T04:15:31.685Z,101256.58
2019-02-21T04:17:59.909Z,101254.36
2019-02-21T04:20:28.227Z,101253.05
2019-02-21T04:22:56.368Z,101258.36
2019-02-21T04:25:24.551Z,101254.81
2019-02-21T04:27:52.847Z,101250.86
2019-02-21T04:30:21.157Z,101259.25
2019-02-21T04:32:49.319Z,101253.06
2019-02-21T04:35:17.586Z,101245.11
2019-02-21T04:37:45.762Z,101238.00
2019-02-21T04:40:14.035Z,101242.87
2019-02-21T04:42:42.336Z,101241.98
2019-02-21T04:45:10.565Z,101240.21
2019-02-21T04:47:38.849Z,101234.03
2019-02-21T04:50:07.144Z,101239.77
2019-02-21T04:52:35.571Z,101239.77
2019-02-21T04:55:03.837Z,101239.33
2019-02-21T04:57:32.375Z,101239.34
2019-02-21T05:00:00.593Z,101236.66
2019-02-21T05:02:29.753Z,101234.48
2019-02-21T05:04:58.088Z,101237.14
2019-02-21T05:07:26.753Z,101231.83
2019-02-21T05:09:58.270Z,101229.18
2019-02-21T05:12:24.874Z,101227.38
2019-02-21T05:14:53.438Z,101233.60
2019-02-21T05:17:21.906Z,101232.70
2019-02-21T05:19:50.101Z,101234.05
2019-02-21T05:22:18.541Z,101228.28
2019-02-21T05:24:46.776Z,101235.80
2019-02-21T05:27:25.086Z,101226.94
2019-02-21T05:29:53.430Z,101231.84
2019-02-21T05:32:41.049Z,101239.36
2019-02-21T05:35:14.376Z,101238.44
2019-02-21T05:38:19.760Z,101233.57
2019-02-21T05:41:09.832Z,101243.28
2019-02-21T05:43:56.970Z,101244.17
2019-02-21T05:46:41.709Z,101245.50
2019-02-21T05:49:41.151Z,101240.63
2019-02-21T05:52:20.535Z,101234.43
2019-02-21T05:55:07.712Z,101243.72
2019-02-21T05:57:57.629Z,101238.87
2019-02-21T06:00:44.841Z,101238.44
2019-02-21T06:03:35.620Z,101246.83
2019-02-21T06:06:36.083Z,101250.39
2019-02-21T06:09:15.027Z,101253.93
2019-02-21T06:12:04.971Z,101253.94
2019-02-21T06:14:54.944Z,101252.17
2019-02-21T06:17:49.124Z,101256.14
2019-02-21T06:20:45.328Z,101263.19
2019-02-21T06:23:20.321Z,101266.33
2019-02-21T06:26:10.636Z,101273.41
2019-02-21T06:28:50.224Z,101270.30
2019-02-21T06:31:20.564Z,101279.14
2019-02-21T06:33:49.596Z,101278.72
2019-02-21T06:36:17.944Z,101286.23
2019-02-21T06:38:46.208Z,101288.45
2019-02-21T06:41:14.385Z,101283.56
2019-02-21T06:43:42.550Z,101282.66
2019-02-21T06:46:13.518Z,101282.66
2019-02-21T06:48:40.598Z,101295.48
2019-02-21T06:51:08.847Z,101294.14
2019-02-21T06:53:37.044Z,101299.91
2019-02-21T06:56:05.216Z,101294.16
2019-02-21T06:58:33.391Z,101306.50
2019-02-21T07:01:01.649Z,101305.17
2019-02-21T07:03:29.882Z,101310.05
2019-02-21T07:05:58.174Z,101301.17
2019-02-21T07:08:26.377Z,101305.17
2019-02-21T07:11:05.436Z,101303.80
2019-02-21T07:13:26.906Z,101306.47
2019-02-21T07:15:54.543Z,101304.66
2019-02-21T07:18:22.745Z,101309.53
2019-02-21T07:20:50.879Z,101302.02
2019-02-21T07:23:19.634Z,101305.58
2019-02-21T07:25:50.785Z,101297.09
2019-02-21T07:28:20.313Z,101301.02
2019-02-21T07:30:49.605Z,101302.27
2019-02-21T07:33:27.882Z,101292.06
2019-02-21T07:35:47.784Z,101300.00
2019-02-21T07:38:17.232Z,101302.58
2019-02-21T07:40:45.624Z,101303.43
2019-02-21T07:43:14.011Z,101304.28
2019-02-21T07:45:42.226Z,101306.91
2019-02-21T07:48:10.522Z,101312.21
2019-02-21T07:50:38.708Z,101311.79
2019-02-21T07:53:07.296Z,101314.45
2019-02-21T07:55:35.497Z,101320.72
2019-02-21T07:58:04.064Z,101313.60
2019-02-21T08:00:32.542Z,101325.61
2019-02-21T08:03:00.814Z,101316.33
2019-02-21T08:05:29.154Z,101326.50
2019-02-21T08:07:57.388Z,101328.22
2019-02-21T08:10:33.085Z,101322.02
2019-02-21T08:12:55.687Z,101327.17
2019-02-21T08:15:23.941Z,101328.71
2019-02-21T08:17:52.240Z,101329.02
2019-02-21T08:20:20.673Z,101336.32
2019-02-21T08:22:48.831Z,101330.81
2019-02-21T08:25:19.119Z,101332.35
2019-02-21T08:27:47.041Z,101342.52
2019-02-21T08:30:16.219Z,101350.58
2019-02-21T08:33:02.750Z,101344.47
2019-02-21T08:35:31.091Z,101336.14
2019-02-21T08:37:59.391Z,101341.02
2019-02-21T08:40:27.743Z,101339.36
2019-02-21T08:42:56.208Z,101339.81
2019-02-21T08:45:24.623Z,101346.61
2019-02-21T08:47:52.822Z,101347.45
2019-02-21T08:50:22.250Z,101350.39
2019-02-21T08:52:50.859Z,101352.38
2019-02-21T08:55:19.392Z,101348.73
2019-02-21T08:57:47.844Z,101356.14
2019-02-21T09:00:16.642Z,101359.39
2019-02-21T09:02:44.901Z,101369.34
2019-02-21T09:05:13.602Z,101363.77
2019-02-21T09:07:42.113Z,101355.91
2019-02-21T09:10:11.225Z,101360.77
2019-02-21T09:12:40.548Z,101365.97
2019-02-21T09:15:11.279Z,101368.45
2019-02-21T09:17:39.620Z,101363.97
2019-02-21T09:20:08.772Z,101369.79
2019-02-21T09:22:36.981Z,101372.64
2019-02-21T09:25:05.867Z,101371.47
2019-02-21T09:27:34.176Z,101373.23
2019-02-21T09:30:05.047Z,101381.25
2019-02-21T09:32:32.375Z,101382.28
2019-02-21T09:35:00.712Z,101377.34
2019-02-21T09:37:29.183Z,101382.22
2019-02-21T09:39:57.380Z,101382.28
2019-02-21T09:42:25.743Z,101387.45
2019-02-21T09:44:54.101Z,101393.83
2019-02-21T09:47:22.347Z,101388.12
2019-02-21T09:49:50.844Z,101387.42
2019-02-21T09:52:19.126Z,101391.38
2019-02-21T09:54:47.693Z,101384.68
2019-02-21T09:57:15.939Z,101387.37
2019-02-21T09:59:44.211Z,101385.70
2019-02-21T10:02:12.554Z,101377.61
2019-02-21T10:04:40.743Z,101378.27
2019-02-21T10:07:08.937Z,101373.91
2019-02-21T10:09:37.228Z,101382.34
2019-02-21T10:12:05.596Z,101374.86
2019-02-21T10:14:33.740Z,101380.02
2019-02-21T10:17:02.084Z,101372.34
2019-02-21T10:19:30.305Z,101372.53
2019-02-21T10:21:58.650Z,101366.28
2019-02-21T10:24:26.960Z,101370.58
2019-02-21T10:26:55.271Z,101375.14
2019-02-21T10:29:23.484Z,101370.84
2019-02-21T10:31:51.807Z,101370.38
2019-02-21T10:34:21.852Z,101374.05
2019-02-21T10:36:49.991Z,101373.41
2019-02-21T10:39:18.357Z,101365.50
2019-02-21T10:41:46.633Z,101366.13
2019-02-21T10:44:15.006Z,101360.33
2019-02-21T10:46:43.241Z,101355.44
2019-02-21T10:49:11.427Z,101350.09
2019-02-21T10:51:39.605Z,101353.91
2019-02-21T10:54:07.832Z,101353.52
2019-02-21T10:56:36.049Z,101352.75
2019-02-21T10:59:04.422Z,101345.59
2019-02-21T11:01:32.754Z,101347.09
2019-02-21T11:04:00.979Z,101348.41
2019-02-21T11:06:29.282Z,101348.23
2019-02-21T11:08:57.483Z,101344.34
2019-02-21T11:11:25.908Z,101341.86
2019-02-21T11:13:55.498Z,101343.15
2019-02-21T11:16:23.796Z,101345.31
2019-02-21T11:18:52.044Z,101344.69
2019-02-21T11:21:20.369Z,101343.98
2019-02-21T11:23:48.758Z,101339.17
2019-02-21T11:26:16.956Z,101345.60
2019-02-21T11:28:47.135Z,101341.48
2019-02-21T11:31:15.357Z,101345.88
2019-02-21T11:33:43.774Z,101342.68
2019-02-21T11:36:12.031Z,101343.97
2019-02-21T11:39:01.021Z,101333.80
2019-02-21T11:41:29.305Z,101325.64
2019-02-21T11:43:57.561Z,101317.84
2019-02-21T11:46:25.747Z,101336.11
2019-02-21T11:48:54.006Z,101319.26
2019-02-21T11:51:22.193Z,101328.58
2019-02-21T11:53:50.423Z,101335.50
2019-02-21T11:56:18.753Z,101328.23
2019-02-21T11:58:47.075Z,101331.30
2019-02-21T12:01:15.234Z,101334.38
2019-02-21T12:03:43.449Z,101327.55
2019-02-21T12:06:11.743Z,101320.02
2019-02-21T12:08:39.962Z,101313.95
2019-02-21T12:11:08.219Z,101310.05
2019-02-21T12:13:36.535Z,101310.00
2019-02-21T12:16:05.010Z,101307.59
2019-02-21T12:18:33.216Z,101311.83
2019-02-21T12:21:01.544Z,101314.25
2019-02-21T12:23:29.795Z,101311.07
2019-02-21T12:25:58.057Z,101307.41
2019-02-21T12:28:26.281Z,101311.70
2019-02-21T12:30:54.766Z,101308.84
2019-02-21T12:33:22.973Z,101307.87
2019-02-21T12:35:51.282Z,101301.68
2019-02-21T12:38:19.493Z,101310.94
2019-02-21T12:40:47.717Z,101303.22
2019-02-21T12:43:16.016Z,101315.95
2019-02-21T12:45:44.307Z,101306.80
2019-02-21T12:48:12.479Z,101315.10
2019-02-21T12:50:44.326Z,101310.41
2019-02-21T12:53:10.563Z,101322.03
2019-02-21T12:55:39.011Z,101320.15
2019-02-21T12:58:07.239Z,101315.20
2019-02-21T13:00:36.620Z,101315.39
2019-02-21T13:03:05.548Z,101317.36
2019-02-21T13:05:41.138Z,101336.02
2019-02-21T13:08:03.671Z,101330.66
2019-02-21T13:10:31.877Z,101319.86
2019-02-21T13:13:00.122Z,101327.27
2019-02-21T13:15:28.398Z,101324.23
2019-02-21T13:17:56.583Z,101327.84
2019-02-21T13:20:24.762Z,101327.03
2019-02-21T13:22:53.010Z,101324.78
2019-02-21T13:25:21.206Z,101324.50
2019-02-21T13:27:49.461Z,101323.96
2019-02-21T13:30:17.812Z,101328.48
2019-02-21T13:32:46.138Z,101331.20
2019-02-21T13:35:14.754Z,101325.21
2019-02-21T13:37:43.102Z,101316.68
2019-02-21T13:40:12.975Z,101325.74
2019-02-21T13:42:41.200Z,101329.92
2019-02-21T13:45:10.022Z,101333.50
2019-02-21T13:47:39.219Z,101324.50
2019-02-21T13:50:10.464Z,101327.61
2019-02-21T13:52:38.644Z,101318.05
2019-02-21T13:55:07.105Z,101322.13
2019-02-21T13:57:35.347Z,101317.47
2019-02-21T14:00:03.592Z,101323.86
2019-02-21T14:02:31.861Z,101329.42
2019-02-21T14:05:00.318Z,101321.52
2019-02-21T14:07:28.473Z,101326.55
2019-02-21T14:09:56.699Z,101330.45
2019-02-21T14:12:26.461Z,101327.61
2019-02-21T14:14:54.990Z,101323.63
2019-02-21T14:17:23.308Z,101331.46
2019-02-21T14:19:53.062Z,101332.17
2019-02-21T14:22:21.403Z,101332.85
2019-02-21T14:24:49.666Z,101322.65
2019-02-21T14:27:17.862Z,101332.31
2019-02-21T14:29:46.125Z,101335.35
2019-02-21T14:32:14.791Z,101337.12
2019-02-21T14:34:43.157Z,101346.92
2019-02-21T14:37:11.565Z,101342.43
2019-02-21T14:39:39.829Z,101337.27
2019-02-21T14:42:08.060Z,101339.45
2019-02-21T14:44:36.350Z,101336.36
2019-02-21T14:47:04.821Z,101336.38
2019-02-21T14:49:33.260Z,101339.64
2019-02-21T14:52:02.032Z,101347.73
2019-02-21T14:54:30.250Z,101341.88
2019-02-21T14:56:58.458Z,101338.53
2019-02-21T14:59:26.601Z,101345.27
2019-02-21T15:01:54.856Z,101341.80
2019-02-21T15:04:23.334Z,101340.88
2019-02-21T15:06:51.532Z,101349.67
2019-02-21T15:09:19.764Z,101349.75
2019-02-21T15:11:48.131Z,101350.55
2019-02-21T15:14:16.620Z,101340.48
2019-02-21T15:16:45.117Z,101344.38
2019-02-21T15:19:13.723Z,101349.55
2019-02-21T15:21:42.263Z,101351.09
2019-02-21T15:24:13.003Z,101352.48
2019-02-21T15:26:40.617Z,101356.20
2019-02-21T15:29:08.962Z,101352.95
2019-02-21T15:31:56.282Z,101358.80
2019-02-21T15:34:24.485Z,101354.19
2019-02-21T15:36:52.770Z,101365.42
2019-02-21T15:39:24.004Z,101362.30
2019-02-21T15:41:52.226Z,101362.45
2019-02-21T15:44:20.474Z,101362.33
2019-02-21T15:46:48.666Z,101369.74
2019-02-21T15:49:16.842Z,101377.29
2019-02-21T15:51:45.212Z,101374.83
2019-02-21T15:54:13.620Z,101377.56
2019-02-21T15:56:41.984Z,101368.87
2019-02-21T15:59:10.268Z,101372.66
2019-02-21T16:01:47.040Z,101377.59
2019-02-21T16:04:08.730Z,101375.64
2019-02-21T16:06:38.013Z,101377.84
2019-02-21T16:09:16.282Z,101379.09
2019-02-21T16:11:39.806Z,101382.84
2019-02-21T16:14:08.109Z,101367.83
2019-02-21T16:16:36.321Z,101365.78
2019-02-21T16:19:04.709Z,101365.87
2019-02-21T16:21:33.054Z,101366.80
2019-02-21T16:24:01.530Z,101356.51
2019-02-21T16:26:29.855Z,101352.81
2019-02-21T16:28:58.333Z,101339.28
2019-02-21T16:31:26.637Z,101336.87
2019-02-21T16:33:54.896Z,101340.03
2019-02-21T16:36:23.554Z,101346.11
2019-02-21T16:38:51.805Z,101340.41
2019-02-21T16:41:20.104Z,101339.27
2019-02-21T16:43:48.914Z,101341.45
2019-02-21T16:46:17.173Z,101337.16
2019-02-21T16:48:45.657Z,101344.45
2019-02-21T16:51:14.062Z,101351.30
2019-02-21T16:53:42.548Z,101347.34
2019-02-21T16:56:13.384Z,101347.73
2019-02-21T16:58:42.985Z,101343.73
2019-02-21T17:01:11.183Z,101357.59
2019-02-21T17:03:39.630Z,101353.73
2019-02-21T17:06:08.160Z,101359.19
2019-02-21T17:08:36.698Z,101359.55
2019-02-21T17:11:05.346Z,101358.70
2019-02-21T17:13:34.023Z,101366.03
2019-02-21T17:16:02.273Z,101373.89
2019-02-21T17:18:31.033Z,101361.33
2019-02-21T17:21:00.091Z,101370.91
2019-02-21T17:23:28.970Z,101380.84
2019-02-21T17:25:57.705Z,101389.63
2019-02-21T17:28:26.210Z,101385.95
2019-02-21T17:30:55.275Z,101396.90
2019-02-21T17:33:23.653Z,101394.91
2019-02-21T17:35:52.259Z,101397.52
2019-02-21T17:38:20.786Z,101407.23
2019-02-21T17:40:49.179Z,101418.77
2019-02-21T17:43:18.483Z,101422.56
2019-02-21T17:45:47.786Z,101425.89
2019-02-21T17:48:16.975Z,101433.37
2019-02-21T17:50:45.941Z,101434.78
2019-02-21T17:53:14.670Z,101438.17
2019-02-21T17:55:43.464Z,101442.09
2019-02-21T17:58:12.211Z,101444.30
2019-02-21T18:00:41.235Z,101443.49
2019-02-21T18:03:09.783Z,101448.72
2019-02-21T18:05:38.602Z,101444.70
2019-02-21T18:08:07.628Z,101442.89
2019-02-21T18:10:36.524Z,101435.34
2019-02-21T18:13:25.526Z,101428.38
2019-02-21T18:15:54.217Z,101438.55
2019-02-21T18:18:22.863Z,101442.50
2019-02-21T18:20:51.657Z,101443.89
2019-02-21T18:23:20.334Z,101450.62
2019-02-21T18:25:52.768Z,101442.63
2019-02-21T18:28:21.509Z,101451.94
2019-02-21T18:30:50.503Z,101451.94
2019-02-21T18:33:19.082Z,101458.77
2019-02-21T18:35:48.018Z,101461.25
2019-02-21T18:38:17.009Z,101456.27
2019-02-21T18:40:45.867Z,101453.76
2019-02-21T18:43:14.785Z,101452.88
2019-02-21T18:45:44.001Z,101450.60
2019-02-21T18:48:13.229Z,101448.47
2019-02-21T18:50:43.137Z,101450.80
2019-02-21T18:53:14.100Z,101461.05
2019-02-21T18:55:44.576Z,101463.88
2019-02-21T18:58:15.541Z,101465.16
2019-02-21T19:00:47.078Z,101470.30
2019-02-21T19:03:15.960Z,101469.25
2019-02-21T19:05:45.965Z,101475.59
2019-02-21T19:08:16.620Z,101479.62
2019-02-21T19:10:46.502Z,101476.47
2019-02-21T19:13:16.899Z,101481.95
2019-02-21T19:15:45.400Z,101485.03
2019-02-21T19:18:15.004Z,101485.38
2019-02-21T19:20:46.588Z,101493.47
2019-02-21T19:23:16.900Z,101491.89
2019-02-21T19:25:47.942Z,101496.19
2019-02-21T19:28:17.547Z,101490.96
2019-02-21T19:30:51.227Z,101496.31
2019-02-21T19:33:24.035Z,101499.69
2019-02-21T19:35:53.508Z,101503.80
2019-02-21T19:38:23.029Z,101500.53
2019-02-21T19:40:51.902Z,101507.98
2019-02-21T19:43:22.328Z,101496.92
2019-02-21T19:45:51.529Z,101504.74
2019-02-21T19:48:20.719Z,101511.63
2019-02-21T19:50:50.390Z,101514.04
2019-02-21T19:53:20.233Z,101517.23
2019-02-21T19:55:49.452Z,101512.76
2019-02-21T19:58:18.871Z,101519.34
2019-02-21T20:00:49.637Z,101517.53
2019-02-21T20:03:18.193Z,101518.92
2019-02-21T20:05:47.836Z,101520.83
2019-02-21T20:08:21.342Z,101518.70
2019-02-21T20:10:48.122Z,101524.50
2019-02-21T20:13:17.243Z,101535.89
2019-02-21T20:15:46.421Z,101531.83
2019-02-21T20:18:16.372Z,101540.45
2019-02-21T20:20:45.442Z,101538.74
2019-02-21T20:23:14.440Z,101538.37
2019-02-21T20:25:43.670Z,101540.22
2019-02-21T20:28:12.850Z,101549.66
2019-02-21T20:30:41.366Z,101551.59
2019-02-21T20:33:11.378Z,101549.30
2019-02-21T20:35:41.352Z,101549.66
2019-02-21T20:38:09.807Z,101555.05
2019-02-21T20:40:39.318Z,101553.94
2019-02-21T20:43:07.995Z,101552.84
2019-02-21T20:45:37.198Z,101555.60
2019-02-21T20:48:06.215Z,101558.69
2019-02-21T20:50:35.515Z,101566.70
2019-02-21T20:53:04.131Z,101572.05
2019-02-21T20:55:43.016Z,101568.17
2019-02-21T20:58:03.825Z,101566.29
2019-02-21T21:00:32.755Z,101572.70
2019-02-21T21:03:01.983Z,101571.41
2019-02-21T21:05:31.471Z,101568.05
2019-02-21T21:08:00.341Z,101577.03
2019-02-21T21:10:28.675Z,101588.88
2019-02-21T21:12:57.174Z,101580.94
2019-02-21T21:15:25.786Z,101589.55
2019-02-21T21:17:55.428Z,101590.30
2019-02-21T21:20:25.990Z,101595.09
2019-02-21T21:22:54.975Z,101591.67
2019-02-21T21:25:23.766Z,101593.89
2019-02-21T21:27:53.586Z,101589.98
2019-02-21T21:30:22.700Z,101586.24
2019-02-21T21:32:51.196Z,101583.53
2019-02-21T21:35:19.796Z,101588.12
2019-02-21T21:37:48.063Z,101585.75
2019-02-21T21:40:16.850Z,101590.67
2019-02-21T21:42:45.079Z,101585.83
2019-02-21T21:48:09.435Z,101590.26
2019-02-21T21:50:37.700Z,101586.24
2019-02-21T21:53:06.159Z,101596.56
2019-02-21T21:55:34.577Z,101604.58
2019-02-21T21:58:03.026Z,101605.57
2019-02-21T22:00:31.407Z,101603.36
2019-02-21T22:02:59.625Z,101612.63
2019-02-21T22:05:27.804Z,101603.99
2019-02-21T22:07:55.992Z,101603.16
2019-02-21T22:10:24.141Z,101607.67
2019-02-21T22:12:52.408Z,101610.67
2019-02-21T22:15:20.702Z,101615.64
2019-02-21T22:17:48.970Z,101617.44
2019-02-21T22:20:17.231Z,101617.59
2019-02-21T22:22:45.513Z,101616.34
2019-02-21T22:25:13.812Z,101615.01
2019-02-21T22:27:42.049Z,101617.81
2019-02-21T22:30:12.385Z,101609.83
2019-02-21T22:32:40.558Z,101608.66
2019-02-21T22:35:08.858Z,101610.25
2019-02-21T22:37:37.146Z,101614.42
2019-02-21T22:40:06.306Z,101617.59
2019-02-21T22:42:34.560Z,101624.50
2019-02-21T22:45:05.336Z,101625.91
2019-02-21T22:47:32.817Z,101628.16
2019-02-21T22:50:01.134Z,101633.13
2019-02-21T22:52:29.446Z,101647.25
2019-02-21T22:55:09.069Z,101646.78
2019-02-21T22:57:27.816Z,101634.50
2019-02-21T22:59:56.026Z,101642.94
2019-02-21T23:02:24.898Z,101642.98
2019-02-21T23:05:17.385Z,101649.04
2019-02-21T23:08:13.091Z,101647.45
2019-02-21T23:10:41.331Z,101650.30
2019-02-21T23:13:09.531Z,101520.27
2019-02-21T23:15:37.767Z,101659.77
2019-02-21T23:18:05.902Z,101665.83
2019-02-21T23:20:34.101Z,101669.58
2019-02-21T23:23:02.330Z,101669.09
2019-02-21T23:25:30.815Z,101665.16
2019-02-21T23:27:58.954Z,101671.26
2019-02-21T23:30:27.126Z,101662.66
2019-02-21T23:32:55.314Z,101663.58
2019-02-21T23:35:23.534Z,101677.94
2019-02-21T23:37:51.770Z,101672.82
2019-02-21T23:40:20.002Z,101675.53
2019-02-21T23:42:48.118Z,101674.96
2019-02-21T23:45:16.486Z,101683.54
2019-02-21T23:47:49.732Z,101678.66
2019-02-21T23:50:14.865Z,101679.11
2019-02-21T23:52:43.287Z,101680.94
2019-02-21T23:55:11.484Z,101687.58
2019-02-21T23:57:39.750Z,101685.84
